Port Alsworth, Alaska
Current Conditions -  °F | °C
As of 3:53 PM on Sunday 23 Nov 2014 (Local Time) from PAIL Reporting Station
Broken Clouds Broken Clouds  
Wind Chill: 35°   Ceiling: 3600
Heat Index: 41°   Visibility: 10mi
Dew Point: 36°   Wind: 10mph
Humidity: 82%   Direction: 100°E
Pressure: 29.4"   Gusts: NA
Location:  60.2°N, 154.32°W
Report Text: PAIL 240053Z 10009KT 10SM BKN036 BKN045 05/02 A2940 RMK AO2 SLP958 T00500022 $
Loading
Personal Weather Stations






























Interactive Weather Map New forecast layout! Learn more

10-Day Weather Forecast

Advertisements
Track Severe Weather on mobile